Time;durP1;ratioP1;P1;durP2;ratioP2;P2;SDS_P1;SDS_P2;PMS_P1;PMS_P2;Temp;Humidity;BMP_temperature;BMP_pressure;BME280_temperature;BME280_humidity;BME280_pressure;Samples;Min_cycle;Max_cycle;Signal;HPM_P1;HPM_P2
2022/12/18 00:03:21;;;;;;;1.70;1.60;;;;;;;-5.42;100.00;102792.41;10422764;28;20053;-68
2022/12/18 00:08:23;;;;;;;5.45;5.25;;;;;;;-5.41;100.00;102803.53;10422607;28;20053;-68
2022/12/18 00:13:26;;;;;;;2.28;1.85;;;;;;;-5.37;100.00;102794.28;10421611;28;20058;-68
2022/12/18 00:18:29;;;;;;;2.85;2.75;;;;;;;-5.32;100.00;102785.13;10421872;28;20049;-68
2022/12/18 00:23:32;;;;;;;12.68;4.32;;;;;;;-5.57;100.00;102785.81;10420593;28;20481;-68
2022/12/18 00:28:34;;;;;;;3.95;1.85;;;;;;;-5.50;100.00;102791.22;10421188;28;20462;-68
2022/12/18 00:33:37;;;;;;;2.25;2.15;;;;;;;-5.57;100.00;102784.13;10420283;28;20049;-68
2022/12/18 00:38:41;;;;;;;1.92;1.83;;;;;;;-5.79;100.00;102780.69;10419530;28;20404;-69
2022/12/18 00:43:43;;;;;;;0.47;0.47;;;;;;;-5.71;100.00;102788.69;10421226;28;20057;-68
2022/12/18 00:48:45;;;;;;;1.10;1.10;;;;;;;-5.71;100.00;102783.56;10419238;28;20451;-68
2022/12/18 00:53:47;;;;;;;0.47;0.47;;;;;;;-5.46;100.00;102794.81;10420058;28;20049;-68
2022/12/18 00:58:50;;;;;;;2.95;0.70;;;;;;;-5.70;100.00;102787.88;10419968;28;20444;-68
2022/12/18 01:03:52;;;;;;;1.27;1.27;;;;;;;-5.61;100.00;102788.25;10418736;28;20472;-69
2022/12/18 01:08:55;;;;;;;0.93;0.93;;;;;;;-5.84;100.00;102787.28;10420224;28;20049;-68
2022/12/18 01:13:58;;;;;;;1.45;1.45;;;;;;;-5.71;100.00;102785.25;10419391;28;20096;-68
2022/12/18 01:19:01;;;;;;;5.07;3.45;;;;;;;-5.78;100.00;102787.56;10418775;28;20056;-68
2022/12/18 01:24:04;;;;;;;4.65;4.25;;;;;;;-5.60;100.00;102771.25;10417934;28;20448;-68
2022/12/18 01:29:06;;;;;;;19.17;5.97;;;;;;;-5.70;100.00;102762.38;10419494;28;20046;-68
2022/12/18 01:34:10;;;;;;;2.58;2.38;;;;;;;-5.71;100.00;102765.72;10418215;28;20049;-68
2022/12/18 01:39:13;;;;;;;0.43;0.43;;;;;;;-5.63;100.00;102782.22;10417747;28;20053;-68
2022/12/18 01:44:53;;;;;;;1.77;1.67;;;;;;;-5.76;100.00;102779.97;10418197;28;20053;-68
2022/12/18 01:49:57;;;;;;;7.05;2.53;;;;;;;-5.79;100.00;102774.72;10416813;28;20053;-68
2022/12/18 01:55:02;;;;;;;4.18;2.20;;;;;;;-5.82;100.00;102787.34;10417419;28;20056;-68
2022/12/18 02:00:09;;;;;;;2.35;1.83;;;;;;;-5.73;100.00;102781.75;10415704;28;20115;-68
2022/12/18 02:05:15;;;;;;;2.90;1.60;;;;;;;-5.76;100.00;102774.00;10416306;28;20076;-68
2022/12/18 02:10:34;;;;;;;1.83;1.73;;;;;;;-5.76;100.00;102768.91;10399653;28;20060;-68
2022/12/18 02:16:02;;;;;;;9.10;4.03;;;;;;;-5.84;100.00;102778.75;10417690;28;20053;-68
2022/12/18 02:21:20;;;;;;;0.60;0.60;;;;;;;-5.80;100.00;102778.06;10415026;28;20057;-68
2022/12/18 02:26:33;;;;;;;1.20;1.20;;;;;;;-5.81;100.00;102768.69;10416101;28;20045;-68
2022/12/18 02:31:52;;;;;;;0.80;0.57;;;;;;;-5.83;100.00;102763.53;10414713;28;20053;-68
2022/12/18 02:36:55;;;;;;;4.38;1.90;;;;;;;-5.86;100.00;102765.94;10414984;28;20049;-68
2022/12/18 02:41:58;;;;;;;5.15;4.30;;;;;;;-5.89;100.00;102763.25;10415905;28;20046;-68
2022/12/18 02:47:00;;;;;;;3.60;3.25;;;;;;;-5.99;100.00;102767.13;10414412;28;20049;-68
2022/12/18 02:52:17;;;;;;;4.30;3.00;;;;;;;-5.95;100.00;102767.22;10415624;28;20056;-68
2022/12/18 02:57:31;;;;;;;1.58;1.02;;;;;;;-5.90;100.00;102755.53;10415066;28;20045;-68
2022/12/18 03:02:59;;;;;;;2.67;2.47;;;;;;;-5.82;100.00;102766.94;10414971;28;20049;-68
2022/12/18 03:08:07;;;;;;;4.85;2.50;;;;;;;-5.88;100.00;102769.25;10414191;28;20096;-68
2022/12/18 03:13:33;;;;;;;1.05;1.05;;;;;;;-5.80;100.00;102761.09;10415635;28;20045;-68
2022/12/18 03:18:59;;;;;;;0.60;0.60;;;;;;;-5.93;100.00;102748.66;10413665;28;20057;-68
2022/12/18 03:24:02;;;;;;;2.45;2.20;;;;;;;-5.93;100.00;102742.66;10413875;28;20049;-68
2022/12/18 03:29:09;;;;;;;1.63;1.52;;;;;;;-5.92;100.00;102747.81;10413088;28;20492;-68
2022/12/18 03:34:17;;;;;;;2.83;1.52;;;;;;;-5.92;100.00;102740.16;10405825;23;20392;-60
2022/12/18 03:39:20;;;;;;;8.82;5.00;;;;;;;-5.94;100.00;102739.25;10374562;28;20050;-61
2022/12/18 03:44:40;;;;;;;9.73;4.60;;;;;;;-5.98;100.00;102722.09;10388584;28;20045;-60
2022/12/18 03:50:00;;;;;;;1.58;1.58;;;;;;;-5.96;100.00;102724.72;10333893;28;20046;-60
2022/12/18 03:55:05;;;;;;;4.80;3.13;;;;;;;-5.88;100.00;102721.66;10333090;28;20481;-60
2022/12/18 04:00:13;;;;;;;7.22;1.77;;;;;;;-5.83;100.00;102709.94;10358352;28;20046;-61
2022/12/18 04:05:16;;;;;;;4.63;3.42;;;;;;;-5.89;100.00;102708.81;10356736;28;20057;-60
2022/12/18 04:10:19;;;;;;;4.35;2.60;;;;;;;-5.89;100.00;102707.13;10372168;28;20045;-60
2022/12/18 04:15:21;;;;;;;26.13;7.45;;;;;;;-5.91;100.00;102716.41;10372366;28;20049;-61
2022/12/18 04:20:23;;;;;;;5.82;5.35;;;;;;;-5.89;100.00;102712.22;10372466;28;20099;-60
2022/12/18 04:25:26;;;;;;;3.70;3.38;;;;;;;-5.98;100.00;102694.91;10378315;28;20058;-61
2022/12/18 04:30:28;;;;;;;4.15;1.77;;;;;;;-5.86;100.00;102697.06;10379623;28;20046;-60
2022/12/18 04:35:31;;;;;;;0.73;0.68;;;;;;;-5.88;100.00;102688.47;10379483;28;20057;-60
2022/12/18 04:40:33;;;;;;;2.08;1.98;;;;;;;-5.85;100.00;102690.25;10379760;28;20415;-60
2022/12/18 04:45:36;;;;;;;3.90;2.95;;;;;;;-5.87;100.00;102691.88;10379484;28;20054;-60
2022/12/18 04:50:38;;;;;;;4.40;2.75;;;;;;;-5.85;100.00;102692.81;10379472;28;20046;-60
2022/12/18 04:55:42;;;;;;;1.60;1.50;;;;;;;-5.73;100.00;102702.66;10378562;28;20398;-61
2022/12/18 05:00:44;;;;;;;2.80;1.67;;;;;;;-6.03;100.00;102700.66;10379643;28;20050;-60
2022/12/18 05:05:50;;;;;;;14.25;2.80;;;;;;;-5.86;100.00;102701.31;10378650;28;20053;-60
2022/12/18 05:11:19;;;;;;;0.68;0.68;;;;;;;-5.81;100.00;102715.13;10378437;28;20046;-60
2022/12/18 05:16:21;;;;;;;0.57;0.57;;;;;;;-5.78;100.00;102728.00;10377496;28;20046;-60
2022/12/18 05:21:24;;;;;;;5.25;0.85;;;;;;;-6.04;100.00;102732.91;10378952;28;20053;-60
2022/12/18 05:26:26;;;;;;;0.40;0.40;;;;;;;-5.80;100.00;102738.16;10377978;28;20057;-60
2022/12/18 05:31:28;;;;;;;2.40;2.25;;;;;;;-5.88;100.00;102749.72;10378544;28;20053;-60
2022/12/18 05:36:37;;;;;;;0.38;0.38;;;;;;;-5.71;100.00;102755.50;10377457;28;20093;-60
2022/12/18 05:41:39;;;;;;;6.63;3.13;;;;;;;-5.90;100.00;102751.34;10376205;28;20448;-60
2022/12/18 05:46:42;;;;;;;10.45;4.97;;;;;;;-5.79;100.00;102750.06;10377914;28;20112;-60
2022/12/18 05:51:45;;;;;;;3.42;1.65;;;;;;;-5.58;100.00;102753.44;10375986;28;20496;-60
2022/12/18 05:56:48;;;;;;;4.38;2.15;;;;;;;-5.60;100.00;102743.16;10376460;28;20050;-60
2022/12/18 06:01:51;;;;;;;1.90;1.80;;;;;;;-5.55;100.00;102736.56;10376562;28;20046;-60
2022/12/18 06:06:54;;;;;;;2.90;1.40;;;;;;;-5.54;100.00;102722.16;10375740;28;20561;-60
2022/12/18 06:11:56;;;;;;;0.32;0.32;;;;;;;-5.47;100.00;102717.31;10376941;28;20108;-60
2022/12/18 06:16:58;;;;;;;0.90;0.90;;;;;;;-5.49;100.00;102703.63;10376725;28;20100;-60
2022/12/18 06:22:00;;;;;;;5.40;5.15;;;;;;;-5.40;100.00;102692.91;10374397;28;20054;-60
2022/12/18 06:27:03;;;;;;;2.70;1.48;;;;;;;-5.56;100.00;102688.00;10376032;28;20050;-61
2022/12/18 06:32:05;;;;;;;4.55;3.25;;;;;;;-5.55;100.00;102699.97;10376277;28;20050;-60
2022/12/18 06:37:08;;;;;;;2.72;1.95;;;;;;;-5.66;100.00;102699.56;10374392;28;20056;-60
2022/12/18 06:42:10;;;;;;;0.95;0.95;;;;;;;-5.70;100.00;102683.25;10375304;28;20099;-60
2022/12/18 06:47:12;;;;;;;2.45;1.65;;;;;;;-5.49;100.00;102675.56;10373269;28;20050;-60
2022/12/18 06:52:16;;;;;;;2.35;2.22;;;;;;;-5.52;100.00;102670.31;10374382;28;20096;-60
2022/12/18 06:57:18;;;;;;;0.60;0.60;;;;;;;-5.76;100.00;102666.84;10375454;28;20100;-60
2022/12/18 07:02:20;;;;;;;1.95;1.50;;;;;;;-5.61;100.00;102662.31;10374643;28;20050;-60
2022/12/18 07:07:23;;;;;;;6.28;1.95;;;;;;;-5.55;100.00;102657.44;10374204;28;20124;-60
2022/12/18 07:12:27;;;;;;;1.33;1.33;;;;;;;-5.45;100.00;102649.31;10375049;28;20049;-60
2022/12/18 07:17:29;;;;;;;2.53;1.08;;;;;;;-5.44;100.00;102648.53;10374025;28;20050;-60
2022/12/18 07:22:31;;;;;;;0.30;0.30;;;;;;;-5.62;100.00;102655.47;10374948;28;20093;-60
2022/12/18 07:27:34;;;;;;;1.95;1.85;;;;;;;-5.55;100.00;102665.09;10374117;28;20061;-60
2022/12/18 07:32:36;;;;;;;1.55;1.17;;;;;;;-5.72;100.00;102663.56;10374537;28;20054;-61
2022/12/18 07:37:39;;;;;;;0.77;0.77;;;;;;;-5.57;100.00;102653.09;10373882;28;20448;-60
2022/12/18 07:42:41;;;;;;;0.70;0.70;;;;;;;-5.68;100.00;102645.91;10373570;28;20116;-61
2022/12/18 07:47:43;;;;;;;6.07;2.90;;;;;;;-5.32;100.00;102629.38;10373831;28;20049;-60
2022/12/18 07:52:46;;;;;;;0.50;0.50;;;;;;;-5.36;100.00;102627.50;10374369;28;20108;-60
2022/12/18 07:57:48;;;;;;;1.85;1.10;;;;;;;-5.41;100.00;102606.94;10374554;28;20543;-60
2022/12/18 08:02:54;;;;;;;0.77;0.77;;;;;;;-5.21;100.00;102592.34;10379930;28;20096;-60
2022/12/18 08:07:58;;;;;;;1.45;1.35;;;;;;;-5.00;100.00;102593.94;10379579;28;20088;-61
2022/12/18 08:13:01;;;;;;;1.23;1.15;;;;;;;-4.83;100.00;102597.09;10381665;28;20053;-60
2022/12/18 08:18:06;;;;;;;0.50;0.50;;;;;;;-4.63;100.00;102606.31;10339266;28;20053;-60
2022/12/18 08:23:15;;;;;;;0.60;0.57;;;;;;;-4.54;100.00;102606.63;10369500;28;20053;-60
2022/12/18 08:28:17;;;;;;;1.67;1.58;;;;;;;-4.48;100.00;102593.16;10381078;28;20042;-60
2022/12/18 08:33:20;;;;;;;1.48;1.38;;;;;;;-4.24;100.00;102588.00;10380539;28;20054;-60
2022/12/18 08:38:23;;;;;;;0.40;0.40;;;;;;;-3.92;100.00;102583.03;10379325;28;20112;-60
2022/12/18 08:48:47;;;;;;;0.53;0.53;;;;;;;-3.78;100.00;102598.84;10378272;28;20052;-61
2022/12/18 08:53:49;;;;;;;1.20;1.20;;;;;;;-3.67;100.00;102581.22;10392988;28;20559;-61
2022/12/18 08:58:53;;;;;;;1.23;0.93;;;;;;;-3.46;100.00;102586.09;10377819;28;20050;-61
2022/12/18 09:03:55;;;;;;;1.15;1.15;;;;;;;-3.31;100.00;102590.78;10376045;28;20053;-61
2022/12/18 09:08:57;;;;;;;1.42;1.33;;;;;;;-3.23;100.00;102600.47;10393375;28;20046;-61
2022/12/18 09:14:01;;;;;;;0.82;0.82;;;;;;;-3.18;100.00;102586.09;10377225;28;20046;-61
2022/12/18 09:19:05;;;;;;;1.27;0.95;;;;;;;-3.09;100.00;102577.78;10382753;28;20038;-61
2022/12/18 09:24:13;;;;;;;0.75;0.75;;;;;;;-2.93;100.00;102581.63;10377096;28;20107;-61
2022/12/18 09:29:16;;;;;;;1.75;0.77;;;;;;;-2.70;100.00;102584.81;10379635;28;20049;-61
2022/12/18 09:34:21;;;;;;;4.15;2.00;;;;;;;-2.60;100.00;102583.34;10377155;28;20057;-61
2022/12/18 09:39:24;;;;;;;5.13;1.58;;;;;;;-2.60;100.00;102572.25;10376034;28;20049;-61
2022/12/18 09:44:43;;;;;;;2.88;1.45;;;;;;;-2.66;100.00;102565.22;10375707;28;20057;-61
2022/12/18 09:49:51;;;;;;;0.68;0.68;;;;;;;-2.39;100.00;102554.78;10375357;28;20049;-61
2022/12/18 09:55:05;;;;;;;0.57;0.57;;;;;;;-2.31;100.00;102548.16;10377725;28;20050;-61
2022/12/18 10:00:20;;;;;;;4.22;2.90;;;;;;;-2.44;100.00;102546.13;10374187;28;20046;-61
2022/12/18 10:05:51;;;;;;;2.08;1.38;;;;;;;-2.39;100.00;102539.41;10375500;28;20054;-61
2022/12/18 10:10:57;;;;;;;2.47;2.28;;;;;;;-2.29;100.00;102525.97;10375704;28;20050;-61
2022/12/18 10:16:05;;;;;;;5.70;3.72;;;;;;;-2.25;100.00;102514.94;10375174;28;20489;-62
2022/12/18 10:21:13;;;;;;;2.88;2.28;;;;;;;-2.10;100.00;102514.44;10374909;28;20052;-62
2022/12/18 10:26:15;;;;;;;2.15;1.95;;;;;;;-2.05;99.54;102517.13;10375386;28;20096;-61
2022/12/18 10:31:23;;;;;;;1.35;1.25;;;;;;;-1.83;98.69;102504.72;10375574;28;20081;-61
2022/12/18 10:36:26;;;;;;;1.88;1.75;;;;;;;-1.82;96.52;102509.91;10374690;28;20485;-61
2022/12/18 10:41:30;;;;;;;3.20;1.67;;;;;;;-1.66;96.08;102498.25;10373188;28;20048;-59
2022/12/18 10:46:32;;;;;;;3.72;0.77;;;;;;;-1.60;95.25;102500.94;10375103;28;20053;-59
2022/12/18 10:51:37;;;;;;;0.52;0.52;;;;;;;-1.51;93.75;102490.00;10374439;28;20108;-59
2022/12/18 10:56:39;;;;;;;0.75;0.75;;;;;;;-1.47;95.96;102476.34;10373369;28;20511;-60
2022/12/18 11:01:54;;;;;;;1.42;1.27;;;;;;;-1.52;93.58;102460.00;10375464;28;20175;-59
2022/12/18 11:07:02;;;;;;;1.05;0.82;;;;;;;-1.36;93.34;102450.84;10374365;28;20052;-59
2022/12/18 11:12:18;;;;;;;1.23;1.13;;;;;;;-1.37;92.77;102450.00;10374551;28;20416;-59
2022/12/18 11:17:30;;;;;;;1.33;0.70;;;;;;;-1.20;94.21;102458.00;10373663;28;20096;-59
2022/12/18 11:22:34;;;;;;;3.78;1.67;;;;;;;-1.29;92.24;102457.88;10357746;28;20084;-59
2022/12/18 11:27:39;;;;;;;0.47;0.40;;;;;;;-1.14;91.11;102435.00;10373653;28;20053;-59
2022/12/18 11:32:44;;;;;;;2.95;2.67;;;;;;;-1.05;90.34;102428.28;10375961;28;20053;-59
2022/12/18 11:37:53;;;;;;;0.90;0.90;;;;;;;-0.94;90.67;102426.78;10382234;28;20065;-59
2022/12/18 11:43:10;;;;;;;2.05;1.30;;;;;;;-0.94;91.37;102412.19;10381808;28;20104;-59
2022/12/18 11:48:27;;;;;;;5.97;2.58;;;;;;;-0.84;90.25;102420.06;10381562;28;20050;-59
2022/12/18 11:53:30;;;;;;;0.30;0.30;;;;;;;-0.73;88.71;102417.66;10380943;28;20428;-59
2022/12/18 11:58:43;;;;;;;0.70;0.68;;;;;;;-0.58;87.65;102418.75;10382240;28;20057;-59
2022/12/18 12:04:08;;;;;;;2.33;1.65;;;;;;;-0.60;88.64;102414.44;10382197;28;20049;-59
2022/12/18 12:09:13;;;;;;;1.55;1.02;;;;;;;-0.68;87.44;102398.00;10381970;28;20058;-59
2022/12/18 12:14:25;;;;;;;0.30;0.30;;;;;;;-0.61;87.90;102385.25;10380282;28;20058;-59
2022/12/18 12:19:36;;;;;;;3.25;2.05;;;;;;;-0.53;88.17;102371.66;10379309;28;20184;-59
2022/12/18 12:25:06;;;;;;;0.25;0.25;;;;;;;-0.52;89.76;102365.66;10380185;28;20100;-59
2022/12/18 12:30:43;;;;;;;0.30;0.30;;;;;;;-0.54;87.23;102372.47;10380418;28;20481;-59
2022/12/18 12:36:18;;;;;;;0.45;0.45;;;;;;;-0.56;87.35;102365.59;10379740;28;20054;-59
2022/12/18 12:46:45;;;;;;;0.40;0.40;;;;;;;-0.66;86.17;102350.03;10378132;28;20049;-59
2022/12/18 12:51:56;;;;;;;0.95;0.95;;;;;;;-0.58;86.76;102340.72;10380464;28;20084;-59
2022/12/18 12:57:33;;;;;;;0.25;0.25;;;;;;;-0.60;86.15;102332.09;10380168;28;20061;-59
2022/12/18 13:02:58;;;;;;;3.08;2.45;;;;;;;-0.75;84.97;102330.19;10378726;28;20056;-59
2022/12/18 13:08:09;;;;;;;1.95;1.85;;;;;;;-0.44;85.71;102318.59;10379073;28;20073;-59
2022/12/18 13:13:14;;;;;;;0.75;0.70;;;;;;;-0.64;86.04;102305.47;10378784;28;20416;-59
2022/12/18 13:18:25;;;;;;;0.80;0.80;;;;;;;-0.38;85.53;102303.22;10378904;28;20052;-59
2022/12/18 13:23:36;;;;;;;2.15;1.25;;;;;;;-0.59;84.45;102288.41;10377801;28;20104;-59
2022/12/18 13:28:48;;;;;;;6.25;2.38;;;;;;;-0.50;85.45;102282.50;10378176;28;20507;-59
2022/12/18 13:33:50;;;;;;;;;;;;;;;-0.48;87.35;102292.81;10378225;28;20112;-59
2022/12/18 13:39:22;;;;;;;;;;;;;;;-0.57;85.54;102297.00;10379004;28;20308;-59
2022/12/18 13:44:39;;;;;;;0.40;0.40;;;;;;;-0.58;86.96;102292.69;10378272;28;19921;-59
2022/12/18 13:49:43;;;;;;;;;;;;;;;-0.58;85.53;102282.38;10377539;28;20081;-66
2022/12/18 13:54:59;;;;;;;1.45;0.90;;;;;;;-0.60;85.66;102278.09;10378141;28;19925;-67
2022/12/18 14:00:25;;;;;;;0.65;0.65;;;;;;;-0.52;86.79;102280.72;10386182;28;20389;-67
2022/12/18 14:05:30;;;;;;;0.85;0.85;;;;;;;-0.50;84.78;102273.94;10373225;28;20488;-67
2022/12/18 14:10:33;;;;;;;5.95;1.45;;;;;;;-0.49;86.12;102266.19;10374615;28;20050;-67
2022/12/18 14:15:51;;;;;;;4.32;1.85;;;;;;;-0.56;85.50;102262.69;10374100;28;20077;-67
2022/12/18 14:20:57;;;;;;;1.33;1.27;;;;;;;-0.73;86.43;102256.47;10375697;28;20108;-66
2022/12/18 14:26:01;;;;;;;2.05;1.95;;;;;;;-0.72;86.08;102252.19;10375552;28;20053;-67
2022/12/18 14:31:27;;;;;;;1.08;1.05;;;;;;;-0.71;87.17;102234.19;10375510;28;20159;-69
2022/12/18 14:36:30;;;;;;;1.55;1.23;;;;;;;-0.76;86.74;102238.44;10374676;28;20057;-67
2022/12/18 14:41:32;;;;;;;1.85;1.73;;;;;;;-0.84;87.81;102233.19;10376081;28;20049;-66
2022/12/18 14:46:35;;;;;;;5.38;2.45;;;;;;;-0.86;88.31;102216.88;10373987;28;20449;-66
2022/12/18 14:51:38;;;;;;;1.67;1.58;;;;;;;-0.83;87.28;102232.34;10373951;28;20480;-66
2022/12/18 14:56:52;;;;;;;0.30;0.30;;;;;;;-0.76;87.31;102228.13;10375171;28;20489;-67
2022/12/18 15:01:59;;;;;;;1.67;1.00;;;;;;;-0.89;87.12;102221.09;10375449;28;20049;-67
2022/12/18 15:07:10;;;;;;;5.43;2.90;;;;;;;-0.97;87.63;102214.16;10375234;28;20108;-67
2022/12/18 15:12:32;;;;;;;0.95;0.65;;;;;;;-0.90;87.69;102220.25;10374647;28;20050;-67
2022/12/18 15:17:34;;;;;;;6.23;2.87;;;;;;;-0.95;87.73;102204.75;10374644;28;20050;-67
2022/12/18 15:22:38;;;;;;;11.30;5.05;;;;;;;-0.91;86.82;102186.81;10414949;28;20319;-67
2022/12/18 15:27:46;;;;;;;2.15;1.95;;;;;;;-0.90;86.53;102202.25;10414486;28;20061;-66
2022/12/18 15:32:49;;;;;;;0.63;0.63;;;;;;;-1.03;86.79;102196.09;10414242;28;20049;-66
2022/12/18 15:37:52;;;;;;;0.40;0.40;;;;;;;-0.97;86.59;102200.47;10413473;28;20061;-67
2022/12/18 15:48:25;;;;;;;10.27;2.40;;;;;;;-1.16;87.57;102189.94;10415601;22;20100;-59
2022/12/18 15:53:33;;;;;;;0.20;0.20;;;;;;;-0.95;87.40;102196.19;10374551;28;20104;-60
2022/12/18 15:58:35;;;;;;;3.10;1.23;;;;;;;-0.96;87.74;102200.47;10373421;28;20053;-60
2022/12/18 16:03:38;;;;;;;0.80;0.80;;;;;;;-0.96;88.67;102204.75;10374141;28;20065;-59
2022/12/18 16:08:41;;;;;;;1.52;1.27;;;;;;;-1.17;88.52;102195.06;10373422;28;20575;-60
2022/12/18 16:13:43;;;;;;;1.25;1.25;;;;;;;-1.17;90.44;102193.34;10373891;28;20058;-60
2022/12/18 16:18:47;;;;;;;0.45;0.45;;;;;;;-1.07;91.15;102185.75;10373926;28;20440;-60
2022/12/18 16:23:49;;;;;;;6.88;3.63;;;;;;;-1.26;88.67;102176.91;10380733;28;20056;-59
2022/12/18 16:28:52;;;;;;;4.25;2.30;;;;;;;-1.30;89.44;102155.47;10379996;28;20096;-59
2022/12/18 16:34:12;;;;;;;2.30;2.20;;;;;;;-1.20;89.47;102148.75;10380952;28;20061;-59
2022/12/18 16:39:14;;;;;;;0.93;0.90;;;;;;;-1.21;89.41;102147.00;10380666;28;20073;-60
2022/12/18 16:44:16;;;;;;;7.53;1.95;;;;;;;-1.19;88.90;102141.06;10379979;28;20543;-59
2022/12/18 16:49:19;;;;;;;0.20;0.20;;;;;;;-1.22;90.89;102130.72;10379550;28;20062;-59
2022/12/18 16:54:21;;;;;;;4.95;4.53;;;;;;;-1.36;90.36;102125.41;10378934;28;20057;-59
2022/12/18 16:59:25;;;;;;;1.38;1.33;;;;;;;-1.31;90.79;102123.78;10377988;28;20054;-60
2022/12/18 17:04:27;;;;;;;0.30;0.30;;;;;;;-1.24;91.24;102123.84;10379839;28;20053;-60
2022/12/18 17:09:30;;;;;;;8.93;1.15;;;;;;;-1.33;91.06;102124.56;10379583;28;20046;-60
2022/12/18 17:14:32;;;;;;;3.78;1.63;;;;;;;-1.41;91.78;102114.22;10379419;28;20049;-59
2022/12/18 17:19:35;;;;;;;0.70;0.60;;;;;;;-1.37;91.83;102108.25;10361812;28;20088;-60
2022/12/18 17:24:37;;;;;;;0.95;0.80;;;;;;;-1.21;93.15;102113.59;10378345;28;20054;-60
2022/12/18 17:29:40;;;;;;;4.88;3.20;;;;;;;-1.34;91.89;102121.16;10377952;28;20056;-60
2022/12/18 17:34:49;;;;;;;1.65;1.40;;;;;;;-1.37;94.73;102115.97;10377971;28;20537;-60
2022/12/18 17:39:52;;;;;;;1.27;1.23;;;;;;;-1.23;94.29;102118.72;10394326;28;20091;-59
2022/12/18 17:44:55;;;;;;;1.15;1.15;;;;;;;-1.32;94.30;102118.59;10419212;28;20061;-60
2022/12/18 17:49:57;;;;;;;4.45;3.70;;;;;;;-1.33;96.38;102120.31;10417065;28;20123;-60
2022/12/18 17:54:59;;;;;;;5.50;3.92;;;;;;;-1.23;94.72;102107.56;10396320;28;20060;-60
2022/12/18 18:00:03;;;;;;;13.45;3.45;;;;;;;-1.38;95.20;102114.25;10378632;28;20401;-59
2022/12/18 18:05:06;;;;;;;1.38;1.38;;;;;;;-1.28;96.24;102117.78;10358537;28;20072;-60
2022/12/18 18:10:11;;;;;;;6.47;3.35;;;;;;;-1.32;97.41;102116.91;10375536;28;20409;-59
2022/12/18 18:15:13;;;;;;;4.60;2.25;;;;;;;-1.18;96.75;102123.91;10377018;28;20053;-60
2022/12/18 18:20:16;;;;;;;2.05;1.95;;;;;;;-1.22;98.56;102111.88;10376054;28;20065;-60
2022/12/18 18:25:24;;;;;;;2.33;2.22;;;;;;;-1.28;97.92;102124.66;10377821;28;20124;-59
2022/12/18 18:30:27;;;;;;;10.23;8.45;;;;;;;-1.22;97.56;102123.03;10361362;28;20041;-59
2022/12/18 18:35:29;;;;;;;4.57;4.13;;;;;;;-1.29;98.61;102120.34;10376361;28;20112;-60
2022/12/18 18:40:58;;;;;;;1.42;1.42;;;;;;;-1.31;98.77;102123.78;10375227;28;20476;-59
2022/12/18 18:46:02;;;;;;;16.23;5.65;;;;;;;-1.33;98.63;102132.28;10375723;28;20057;-59
2022/12/18 18:51:07;;;;;;;5.15;4.30;;;;;;;-1.18;99.75;102113.63;10379500;28;20136;-59
2022/12/18 18:56:11;;;;;;;0.20;0.20;;;;;;;-1.15;99.87;102100.81;10378824;28;20441;-59
2022/12/18 19:01:33;;;;;;;1.73;1.65;;;;;;;-1.34;100.00;102110.88;10374854;28;20084;-60
2022/12/18 19:06:36;;;;;;;3.00;1.38;;;;;;;-1.31;100.00;102105.78;10376593;28;20054;-59
2022/12/18 19:17:14;;;;;;;0.55;0.55;;;;;;;-1.09;100.00;102085.50;10350422;28;20136;-59
2022/12/18 19:22:17;;;;;;;1.75;1.65;;;;;;;-1.26;100.00;102089.53;10374236;28;20064;-59
2022/12/18 19:27:19;;;;;;;9.82;8.98;;;;;;;-1.16;100.00;102079.41;10373685;28;20497;-59
2022/12/18 19:32:21;;;;;;;3.17;2.88;;;;;;;-1.16;100.00;102081.09;10387647;28;20440;-59
2022/12/18 19:37:23;;;;;;;6.80;0.95;;;;;;;-1.15;100.00;102086.25;10374586;28;20137;-60
2022/12/18 19:42:27;;;;;;;2.90;2.65;;;;;;;-1.27;100.00;102087.84;10375331;28;20041;-59
2022/12/18 19:47:36;;;;;;;6.50;3.40;;;;;;;-1.11;100.00;102087.16;10373793;28;20049;-59
2022/12/18 19:52:39;;;;;;;0.73;0.73;;;;;;;-1.17;100.00;102105.94;10375468;28;20056;-59
2022/12/18 19:57:41;;;;;;;0.43;0.43;;;;;;;-1.10;100.00;102098.31;10365058;28;20125;-59
2022/12/18 20:02:44;;;;;;;5.28;2.38;;;;;;;-1.05;100.00;102084.66;10382094;28;20050;-59
2022/12/18 20:07:46;;;;;;;1.23;1.20;;;;;;;-1.09;100.00;102085.50;10383121;28;20054;-59
2022/12/18 20:12:48;;;;;;;2.35;1.75;;;;;;;-1.10;100.00;102085.47;10381149;28;20053;-60
2022/12/18 20:17:52;;;;;;;6.35;3.90;;;;;;;-1.00;100.00;102077.88;10381637;28;20136;-59
2022/12/18 20:22:54;;;;;;;14.20;4.22;;;;;;;-1.08;100.00;102074.34;10380729;28;20501;-59
2022/12/18 20:27:57;;;;;;;0.95;0.95;;;;;;;-1.23;100.00;102076.75;10392684;28;20492;-59
2022/12/18 20:32:59;;;;;;;9.52;6.22;;;;;;;-1.32;100.00;102073.22;10398254;28;20528;-59
2022/12/18 20:38:01;;;;;;;0.63;0.63;;;;;;;-1.09;100.00;102082.03;10380294;28;20057;-59
2022/12/18 20:43:05;;;;;;;10.80;5.75;;;;;;;-1.24;100.00;102088.72;10362777;28;20046;-59
2022/12/18 20:48:08;;;;;;;6.07;2.30;;;;;;;-1.20;100.00;102084.50;10380239;28;20053;-59
2022/12/18 20:53:10;;;;;;;1.70;1.33;;;;;;;-1.09;100.00;102094.88;10380531;28;20494;-59
2022/12/18 20:58:13;;;;;;;0.35;0.35;;;;;;;-1.03;100.00;102088.09;10380184;28;20050;-59
2022/12/18 21:03:15;;;;;;;5.00;1.42;;;;;;;-1.03;100.00;102087.25;10380825;28;20046;-59
2022/12/18 21:08:17;;;;;;;2.05;1.98;;;;;;;-1.04;100.00;102083.84;10379099;28;20058;-59
2022/12/18 21:13:20;;;;;;;0.40;0.40;;;;;;;-1.04;100.00;102082.94;10383719;28;20443;-59
2022/12/18 21:18:23;;;;;;;9.10;4.65;;;;;;;-1.08;100.00;102069.19;10378043;28;20501;-59
2022/12/18 21:23:25;;;;;;;2.88;2.25;;;;;;;-1.06;100.00;102067.53;10378379;28;20154;-59
2022/12/18 21:28:27;;;;;;;9.63;4.43;;;;;;;-1.15;100.00;102062.28;10378729;28;20046;-59
2022/12/18 21:33:30;;;;;;;9.10;3.67;;;;;;;-1.08;100.00;102050.34;10362919;28;20100;-59
2022/12/18 21:38:32;;;;;;;4.75;2.45;;;;;;;-1.12;100.00;102050.31;10381573;28;20108;-59
2022/12/18 21:48:59;;;;;;;4.60;4.18;;;;;;;-1.20;100.00;102030.53;10377255;28;20065;-59
2022/12/18 21:54:01;;;;;;;6.45;5.72;;;;;;;-1.02;100.00;102027.28;10362469;28;20053;-59
2022/12/18 21:59:03;;;;;;;5.38;4.88;;;;;;;-1.06;100.00;102016.13;10376478;28;20108;-59
2022/12/18 22:04:06;;;;;;;7.90;4.43;;;;;;;-1.12;100.00;102014.31;10376914;28;20493;-59
2022/12/18 22:09:10;;;;;;;9.48;5.35;;;;;;;-1.13;100.00;102007.47;10376635;28;20547;-59
2022/12/18 22:14:13;;;;;;;3.72;3.35;;;;;;;-1.10;100.00;102009.22;10375952;28;20050;-59
2022/12/18 22:19:16;;;;;;;0.68;0.43;;;;;;;-1.04;100.00;102003.25;10358962;28;20061;-59
2022/12/18 22:24:20;;;;;;;4.05;2.90;;;;;;;-1.12;100.00;101996.34;10376759;28;20050;-59
2022/12/18 22:34:44;;;;;;;5.63;4.65;;;;;;;-1.03;100.00;101987.84;10376546;28;20050;-59
2022/12/18 22:39:47;;;;;;;10.32;2.75;;;;;;;-0.95;100.00;101981.06;10376234;28;20107;-59
2022/12/18 22:44:49;;;;;;;3.97;1.92;;;;;;;-1.02;100.00;101961.31;10374974;28;20124;-59
2022/12/18 22:49:51;;;;;;;5.85;4.82;;;;;;;-0.96;100.00;101960.50;10375105;28;20173;-60
2022/12/18 22:54:54;;;;;;;15.35;9.35;;;;;;;-0.93;100.00;101943.38;10375022;28;20084;-60
2022/12/18 22:59:56;;;;;;;13.52;8.18;;;;;;;-1.01;100.00;101947.63;10375452;28;20050;-59
2022/12/18 23:04:58;;;;;;;9.75;5.63;;;;;;;-0.99;100.00;101943.34;10374674;28;20045;-59
2022/12/18 23:10:01;;;;;;;18.60;7.20;;;;;;;-0.89;100.00;101925.41;10374604;28;20111;-59
2022/12/18 23:15:04;;;;;;;21.38;7.80;;;;;;;-0.87;100.00;101918.59;10357337;28;20054;-59
2022/12/18 23:20:07;;;;;;;9.95;8.63;;;;;;;-1.00;100.00;101905.63;10373692;28;20453;-60
2022/12/18 23:25:09;;;;;;;19.40;10.77;;;;;;;-0.95;100.00;101882.53;10374285;28;20050;-60
2022/12/18 23:30:12;;;;;;;20.80;9.45;;;;;;;-0.97;100.00;101872.22;10373955;28;20456;-59
2022/12/18 23:35:15;;;;;;;19.25;6.57;;;;;;;-0.92;100.00;101879.97;10374693;28;20065;-59
2022/12/18 23:40:17;;;;;;;3.30;1.67;;;;;;;-0.88;100.00;101861.16;10373457;28;20489;-60
2022/12/18 23:45:19;;;;;;;1.08;0.93;;;;;;;-0.82;100.00;101865.50;10374243;28;20065;-60
2022/12/18 23:50:22;;;;;;;6.68;2.50;;;;;;;-0.79;100.00;101856.09;10373889;28;20049;-60